Time;durP1;ratioP1;P1;durP2;ratioP2;P2;SDS_P1;SDS_P2;PMS_P1;PMS_P2;Temp;Humidity;BMP_temperature;BMP_pressure;BME280_temperature;BME280_humidity;BME280_pressure;Samples;Min_cycle;Max_cycle;Signal;HPM_P1;HPM_P2
2022/06/07 00:00:41;;;;;;;2.33;2.23;;;13.10;1.00;;;;;;4999156;28;20512;-50
2022/06/07 00:03:07;;;;;;;2.40;2.20;;;13.20;1.00;;;;;;4993154;28;20510;-50
2022/06/07 00:05:33;;;;;;;2.43;2.23;;;13.20;1.00;;;;;;4990493;28;20586;-51
2022/06/07 00:07:59;;;;;;;2.57;2.37;;;13.30;1.00;;;;;;4991469;28;20176;-50
2022/06/07 00:10:25;;;;;;;2.60;2.40;;;13.30;1.00;;;;;;4992378;28;20590;-51
2022/06/07 00:12:51;;;;;;;2.37;2.17;;;13.20;1.00;;;;;;4992375;28;20188;-50
2022/06/07 00:15:21;;;;;;;3.10;2.37;;;13.30;99.90;;;;;;4987969;28;20450;-50
2022/06/07 00:17:47;;;;;;;4.70;2.10;;;13.20;99.90;;;;;;4999180;28;20221;-51
2022/06/07 00:20:13;;;;;;;2.53;2.20;;;13.20;99.90;;;;;;4990324;28;20533;-50
2022/06/07 00:22:39;;;;;;;2.60;2.40;;;13.30;99.90;;;;;;4997081;28;20223;-50
2022/06/07 00:25:07;;;;;;;4.07;2.50;;;13.30;99.90;;;;;;4997114;28;20238;-50
2022/06/07 00:27:33;;;;;;;6.60;3.43;;;13.20;99.90;;;;;;5001076;28;20435;-51
2022/06/07 00:29:59;;;;;;;2.83;2.60;;;13.20;99.90;;;;;;4994187;28;21113;-50
2022/06/07 00:32:26;;;;;;;3.93;3.20;;;13.10;99.90;;;;;;4999476;28;20439;-50
2022/06/07 00:34:51;;;;;;;3.87;2.90;;;13.10;99.90;;;;;;4991283;28;20454;-50
2022/06/07 00:37:17;;;;;;;3.40;3.10;;;13.10;99.90;;;;;;4993927;28;20447;-50
2022/06/07 00:39:43;;;;;;;3.83;2.87;;;13.10;99.90;;;;;;4992840;28;20210;-51
2022/06/07 00:42:10;;;;;;;2.90;2.60;;;13.00;99.90;;;;;;4996138;28;20211;-50
2022/06/07 00:44:38;;;;;;;3.37;3.10;;;13.10;99.90;;;;;;4993519;28;20247;-50
2022/06/07 00:47:13;;;;;;;3.73;3.43;;;13.10;99.90;;;;;;5001906;28;20911;-50
2022/06/07 00:49:45;;;;;;;4.03;2.70;;;13.00;99.90;;;;;;4990753;28;20470;-50
2022/06/07 00:52:11;;;;;;;3.37;3.07;;;13.00;99.90;;;;;;4986947;28;20493;-50
2022/06/07 00:54:37;;;;;;;3.63;3.33;;;13.00;99.90;;;;;;4989091;28;20443;-50
2022/06/07 00:57:03;;;;;;;3.00;2.70;;;13.00;99.90;;;;;;4999041;28;20994;-50
2022/06/07 00:59:30;;;;;;;3.30;3.00;;;13.00;99.90;;;;;;4993046;28;20634;-51
2022/06/07 01:01:56;;;;;;;4.90;3.20;;;13.00;99.90;;;;;;4997713;28;20994;-50
2022/06/07 01:04:23;;;;;;;4.30;2.87;;;13.00;99.90;;;;;;4998400;28;20442;-52
2022/06/07 01:12:18;;;;;;;3.33;3.07;;;12.90;99.90;;;;;;4992689;28;20780;-52
2022/06/07 01:14:43;;;;;;;3.33;2.67;;;12.90;99.90;;;;;;4992127;28;20446;-52
2022/06/07 01:17:09;;;;;;;5.23;3.27;;;13.00;99.90;;;;;;4998020;28;20270;-52
2022/06/07 01:19:35;;;;;;;2.70;2.50;;;13.00;99.90;;;;;;4991804;28;20929;-53
2022/06/07 01:22:00;;;;;;;8.97;5.20;;;13.00;99.90;;;;;;4996142;28;20250;-52
2022/06/07 01:24:26;;;;;;;3.30;3.00;;;13.00;99.90;;;;;;5000498;28;20704;-52
2022/06/07 01:26:53;;;;;;;4.80;3.00;;;12.90;99.90;;;;;;4996758;28;20194;-52
2022/06/07 01:29:19;;;;;;;3.57;3.03;;;13.00;99.90;;;;;;4994044;28;20700;-52
2022/06/07 01:31:46;;;;;;;4.30;3.60;;;13.00;99.90;;;;;;4992466;28;20446;-52
2022/06/07 01:34:11;;;;;;;3.93;2.93;;;13.10;99.90;;;;;;4998458;28;20494;-52
2022/06/07 01:36:37;;;;;;;5.20;3.63;;;13.20;99.90;;;;;;4995242;28;20451;-52
2022/06/07 01:41:54;;;;;;;5.97;2.90;;;13.20;92.00;;;;;;4996639;28;20526;-53
2022/06/07 01:44:28;;;;;;;3.80;3.50;;;13.30;26.10;;;;;;4996529;28;21003;-52
2022/06/07 01:46:56;;;;;;;3.50;3.20;;;13.30;1.00;;;;;;4997932;28;20445;-53
2022/06/07 01:49:23;;;;;;;3.40;3.10;;;13.20;1.00;;;;;;4997814;28;20434;-53
2022/06/07 01:51:50;;;;;;;3.67;3.37;;;13.20;1.00;;;;;;4994578;28;20446;-52
2022/06/07 01:54:16;;;;;;;4.40;3.27;;;13.20;2.30;;;;;;4996237;28;20443;-52
2022/06/07 01:56:41;;;;;;;2.90;2.50;;;13.20;1.00;;;;;;4994525;28;21347;-52
2022/06/07 01:59:08;;;;;;;2.80;2.60;;;13.20;4.50;;;;;;4991229;28;20238;-53
2022/06/07 02:01:33;;;;;;;4.07;2.87;;;13.10;5.30;;;;;;4996262;28;20187;-52
2022/06/07 02:03:59;;;;;;;3.47;3.17;;;13.20;19.80;;;;;;4987505;28;20506;-52
2022/06/07 02:06:25;;;;;;;5.20;3.57;;;13.30;1.00;;;;;;4991585;28;20196;-52
2022/06/07 02:08:51;;;;;;;5.70;3.03;;;13.40;1.00;;;;;;5007618;28;20445;-52
2022/06/07 02:11:19;;;;;;;3.57;2.90;;;13.30;1.00;;;;;;4998166;28;20242;-52
2022/06/07 02:13:46;;;;;;;4.73;2.87;;;13.30;1.00;;;;;;4991818;28;20187;-53
2022/06/07 02:16:13;;;;;;;3.40;3.10;;;13.30;1.00;;;;;;5005806;28;20802;-52
2022/06/07 02:18:39;;;;;;;4.00;3.27;;;13.30;1.00;;;;;;5000529;28;20449;-52
2022/06/07 02:21:06;;;;;;;3.07;2.87;;;13.30;1.00;;;;;;5001039;28;20477;-52
2022/06/07 02:23:33;;;;;;;2.80;2.50;;;13.30;1.00;;;;;;5000172;28;20824;-52
2022/06/07 02:26:21;;;;;;;5.77;3.03;;;13.40;1.00;;;;;;4993400;28;20443;-52
2022/06/07 02:28:52;;;;;;;3.77;3.00;;;13.50;1.00;;;;;;5004672;28;20442;-53
2022/06/07 02:31:20;;;;;;;4.50;3.10;;;13.40;1.00;;;;;;5008062;28;20450;-57
2022/06/07 02:33:46;;;;;;;3.77;3.37;;;13.40;1.00;;;;;;4994023;28;20485;-52
2022/06/07 02:36:13;;;;;;;4.83;4.43;;;13.40;1.00;;;;;;5004869;28;20439;-52
2022/06/07 02:38:40;;;;;;;4.40;4.00;;;13.60;1.00;;;;;;4994811;28;20546;-52
2022/06/07 02:41:09;;;;;;;3.43;3.13;;;13.60;1.00;;;;;;5004859;28;20426;-52
2022/06/07 02:43:35;;;;;;;3.60;3.30;;;13.60;1.00;;;;;;4993325;28;20497;-52
2022/06/07 02:46:02;;;;;;;4.67;3.57;;;13.70;1.00;;;;;;4993554;28;20537;-52
2022/06/07 02:48:29;;;;;;;4.10;3.10;;;13.60;1.00;;;;;;5001274;28;20440;-52
2022/06/07 02:50:54;;;;;;;3.53;3.23;;;13.60;1.00;;;;;;5007096;28;20438;-52
2022/06/07 02:53:20;;;;;;;5.73;3.30;;;13.70;1.00;;;;;;4997483;28;20501;-52
2022/06/07 02:55:46;;;;;;;3.30;3.00;;;13.60;1.00;;;;;;4997561;28;20198;-52
2022/06/07 02:58:11;;;;;;;4.67;3.13;;;13.60;1.00;;;;;;5005533;28;20529;-53
2022/06/07 03:00:37;;;;;;;3.07;2.73;;;13.60;1.00;;;;;;4995024;28;20192;-52
2022/06/07 03:03:03;;;;;;;3.40;3.10;;;13.60;1.00;;;;;;4998776;28;20223;-52
2022/06/07 03:05:29;;;;;;;2.63;2.47;;;13.50;1.00;;;;;;5007484;28;20176;-52
2022/06/07 03:07:54;;;;;;;2.80;2.60;;;13.60;1.00;;;;;;5008085;28;20454;-53
2022/06/07 03:10:20;;;;;;;6.33;2.80;;;13.60;1.00;;;;;;4994955;28;20186;-52
2022/06/07 03:12:46;;;;;;;2.20;2.10;;;13.60;1.00;;;;;;4996172;28;20275;-52
2022/06/07 03:15:13;;;;;;;2.83;2.50;;;13.70;1.00;;;;;;4995765;28;20674;-51
2022/06/07 03:17:40;;;;;;;3.27;2.13;;;13.70;1.00;;;;;;5003384;28;20203;-52
2022/06/07 03:20:07;;;;;;;3.27;2.43;;;13.80;1.00;;;;;;5003023;28;20460;-51
2022/06/07 03:22:34;;;;;;;2.70;1.80;;;13.70;1.00;;;;;;4999786;28;20714;-52
2022/06/07 03:25:05;;;;;;;1.90;1.80;;;13.70;1.00;;;;;;4999346;28;20549;-52
2022/06/07 03:27:35;;;;;;;1.90;1.80;;;13.70;1.00;;;;;;5001915;28;20470;-52
2022/06/07 03:30:06;;;;;;;3.10;1.93;;;13.80;1.00;;;;;;4994261;28;21198;-52
2022/06/07 03:32:33;;;;;;;13.23;2.63;;;13.80;1.00;;;;;;4994472;28;20463;-52
2022/06/07 03:34:59;;;;;;;4.20;2.03;;;13.90;1.00;;;;;;5003285;28;20581;-52
2022/06/07 03:37:25;;;;;;;1.97;1.87;;;13.80;1.00;;;;;;5003264;28;20469;-52
2022/06/07 03:39:51;;;;;;;3.00;1.90;;;13.80;1.00;;;;;;4998108;28;20431;-52
2022/06/07 03:42:17;;;;;;;2.20;2.00;;;13.80;1.00;;;;;;4994485;28;20219;-51
2022/06/07 03:44:48;;;;;;;2.97;1.80;;;13.80;1.00;;;;;;4994759;28;20207;-52
2022/06/07 03:47:15;;;;;;;1.80;1.70;;;13.80;1.00;;;;;;4997482;28;20458;-52
2022/06/07 03:49:40;;;;;;;1.90;1.80;;;13.80;1.00;;;;;;4997073;28;20483;-52
2022/06/07 03:52:06;;;;;;;2.20;2.00;;;13.70;1.00;;;;;;4994488;28;20470;-52
2022/06/07 03:54:32;;;;;;;2.40;2.00;;;13.80;1.00;;;;;;4996596;28;20804;-53
2022/06/07 03:56:58;;;;;;;2.90;2.10;;;13.80;1.00;;;;;;4997809;28;20795;-52
2022/06/07 03:59:24;;;;;;;2.60;2.40;;;13.80;1.00;;;;;;4999295;28;20196;-52
2022/06/07 04:01:50;;;;;;;2.30;2.10;;;13.80;1.00;;;;;;4997243;28;20188;-52
2022/06/07 04:04:16;;;;;;;2.70;2.50;;;13.80;1.00;;;;;;4999448;28;21007;-51
2022/06/07 04:08:10;;;;;;;3.90;2.60;;;13.70;1.00;;;;;;4999427;28;20454;-52
2022/06/07 04:09:31;;;;;;;4.20;2.23;;;13.70;1.00;;;;;;5001615;28;20449;-52
2022/06/07 04:11:57;;;;;;;2.80;2.40;;;13.80;1.00;;;;;;4997520;28;20923;-52
2022/06/07 04:14:22;;;;;;;3.77;2.57;;;13.80;1.00;;;;;;4997366;28;20447;-51
2022/06/07 04:16:48;;;;;;;3.23;2.27;;;13.80;1.00;;;;;;5002911;28;20568;-52
2022/06/07 04:19:14;;;;;;;2.17;2.07;;;13.90;1.00;;;;;;4996606;28;20181;-52
2022/06/07 04:21:40;;;;;;;2.60;2.00;;;14.00;1.00;;;;;;4995010;28;20243;-52
2022/06/07 04:24:05;;;;;;;2.67;2.47;;;14.00;1.00;;;;;;4993562;28;20209;-52
2022/06/07 04:26:32;;;;;;;4.07;3.10;;;14.00;1.00;;;;;;4996133;28;20714;-52
2022/06/07 04:28:58;;;;;;;4.17;3.40;;;14.00;1.00;;;;;;4993306;28;20180;-52
2022/06/07 04:31:25;;;;;;;3.10;2.90;;;14.00;1.00;;;;;;4999226;28;20803;-52
2022/06/07 04:33:56;;;;;;;3.43;3.10;;;14.00;1.00;;;;;;4993987;28;21290;-52
2022/06/07 04:36:23;;;;;;;5.03;4.00;;;14.00;1.00;;;;;;4991563;28;20770;-52
2022/06/07 04:38:51;;;;;;;3.67;3.30;;;14.00;1.00;;;;;;4994712;28;20450;-51
2022/06/07 04:41:19;;;;;;;3.73;3.33;;;14.00;1.00;;;;;;4998194;28;20438;-52
2022/06/07 04:43:46;;;;;;;3.90;3.50;;;13.90;1.00;;;;;;4996593;28;20477;-52
2022/06/07 04:46:16;;;;;;;3.73;3.07;;;13.90;1.00;;;;;;5000997;28;20933;-52
2022/06/07 04:48:43;;;;;;;3.40;3.10;;;13.90;1.00;;;;;;4991716;28;20454;-50
2022/06/07 04:51:30;;;;;;;4.20;3.10;;;13.90;1.00;;;;;;4994385;28;20454;-50
2022/06/07 04:53:58;;;;;;;4.73;3.10;;;14.00;1.00;;;;;;4993045;28;20456;-50
2022/06/07 04:56:28;;;;;;;3.33;3.03;;;14.00;1.00;;;;;;4990317;28;20490;-51
2022/06/07 04:58:56;;;;;;;3.70;3.40;;;14.00;1.00;;;;;;4991943;28;20463;-50
2022/06/07 05:01:43;;;;;;;4.97;3.63;;;14.10;1.00;;;;;;4989966;28;21278;-50
2022/06/07 05:04:10;;;;;;;7.03;3.77;;;14.10;1.00;;;;;;4992978;28;20487;-49
2022/06/07 05:06:41;;;;;;;4.20;3.80;;;14.10;1.00;;;;;;4992361;28;20447;-49
2022/06/07 05:09:12;;;;;;;6.07;4.00;;;14.10;1.00;;;;;;4985842;28;20932;-50
2022/06/07 05:11:38;;;;;;;7.87;4.53;;;14.20;1.00;;;;;;4992061;28;20822;-51
2022/06/07 05:14:05;;;;;;;6.37;4.70;;;14.20;1.00;;;;;;4994860;28;20443;-50
2022/06/07 05:16:31;;;;;;;6.40;4.00;;;14.20;1.00;;;;;;4990469;28;20207;-50
2022/06/07 05:18:57;;;;;;;5.30;4.47;;;14.20;1.00;;;;;;4985823;28;21016;-49
2022/06/07 05:21:25;;;;;;;5.70;4.80;;;14.20;1.00;;;;;;4996403;28;20560;-50
2022/06/07 05:23:52;;;;;;;5.40;4.50;;;14.20;1.00;;;;;;4985764;28;20232;-50
2022/06/07 05:26:38;;;;;;;5.50;4.33;;;14.20;1.00;;;;;;4990062;28;20529;-51
2022/06/07 05:29:05;;;;;;;5.37;4.70;;;14.30;1.00;;;;;;4979276;28;20440;-51
2022/06/07 05:31:31;;;;;;;5.77;5.27;;;14.30;1.00;;;;;;4987628;28;20948;-50
2022/06/07 05:33:57;;;;;;;4.83;4.30;;;14.30;1.00;;;;;;4986696;28;20462;-50
2022/06/07 05:36:23;;;;;;;8.37;5.17;;;14.30;1.00;;;;;;4994318;28;20431;-50
2022/06/07 05:38:49;;;;;;;9.47;5.77;;;14.30;1.00;;;;;;4999600;28;20196;-50
2022/06/07 05:41:24;;;;;;;7.60;6.50;;;14.30;1.00;;;;;;4988263;28;20457;-50
2022/06/07 05:43:51;;;;;;;7.27;6.07;;;14.30;1.00;;;;;;4990256;28;20478;-51
2022/06/07 05:46:17;;;;;;;8.30;5.87;;;14.30;1.00;;;;;;4987088;28;20475;-50
2022/06/07 05:48:43;;;;;;;8.47;7.27;;;14.30;1.00;;;;;;4996347;28;20442;-50
2022/06/07 05:51:08;;;;;;;9.20;7.90;;;14.30;1.00;;;;;;5001839;28;20518;-50
2022/06/07 05:53:34;;;;;;;8.77;7.07;;;14.30;1.00;;;;;;4996747;28;20230;-49
2022/06/07 05:56:07;;;;;;;9.27;7.00;;;14.20;1.00;;;;;;4998374;28;20235;-50
2022/06/07 05:58:33;;;;;;;12.27;8.17;;;14.30;1.00;;;;;;5006110;28;20695;-50
2022/06/07 06:00:59;;;;;;;9.67;7.43;;;14.30;1.00;;;;;;4999982;28;20450;-50
2022/06/07 06:03:24;;;;;;;13.00;8.47;;;14.30;1.00;;;;;;4997787;28;20485;-50
2022/06/07 06:05:50;;;;;;;12.60;8.50;;;14.30;1.00;;;;;;4977082;28;20199;-50
2022/06/07 06:11:15;;;;;;;11.63;9.50;;;14.30;1.00;;;;;;4999052;28;20198;-50
2022/06/07 06:13:41;;;;;;;13.83;10.27;;;14.30;1.00;;;;;;4997779;28;20430;-50
2022/06/07 06:16:10;;;;;;;15.80;11.23;;;14.30;1.00;;;;;;4998299;28;20422;-50
2022/06/07 06:18:36;;;;;;;13.03;10.20;;;14.40;1.00;;;;;;5002091;28;20192;-50
2022/06/07 06:21:02;;;;;;;19.30;10.87;;;14.50;1.00;;;;;;5000609;28;21011;-50
2022/06/07 06:23:28;;;;;;;14.53;10.50;;;14.60;1.00;;;;;;4997775;28;20617;-50
2022/06/07 06:25:54;;;;;;;12.87;10.33;;;14.70;1.00;;;;;;5000118;28;20439;-50
2022/06/07 06:28:20;;;;;;;15.80;12.43;;;14.80;1.00;;;;;;4995081;28;20295;-50
2022/06/07 06:30:47;;;;;;;50.33;31.43;;;14.80;1.00;;;;;;4994809;28;20251;-50
2022/06/07 06:33:13;;;;;;;39.27;26.13;;;14.80;1.00;;;;;;4995713;28;20446;-50
2022/06/07 06:35:39;;;;;;;19.40;11.07;;;14.80;1.00;;;;;;5000373;28;20455;-50
2022/06/07 06:38:05;;;;;;;18.70;11.33;;;14.80;1.00;;;;;;5003336;28;20426;-51
2022/06/07 06:40:31;;;;;;;16.60;11.50;;;14.70;1.00;;;;;;4995634;28;20442;-50
2022/06/07 06:42:56;;;;;;;17.53;10.90;;;14.70;1.00;;;;;;4994338;28;20633;-50
2022/06/07 06:45:22;;;;;;;19.10;12.13;;;14.70;1.00;;;;;;4995275;28;20192;-50
2022/06/07 06:47:48;;;;;;;19.50;12.10;;;14.80;1.00;;;;;;4986411;28;20202;-50
2022/06/07 06:50:13;;;;;;;18.53;12.00;;;14.80;1.00;;;;;;4995501;28;20212;-50
2022/06/07 06:52:40;;;;;;;15.80;11.90;;;14.80;1.00;;;;;;4991936;28;20195;-50
2022/06/07 06:55:06;;;;;;;25.20;12.70;;;14.80;1.00;;;;;;5001331;28;20196;-50
2022/06/07 06:57:32;;;;;;;18.33;12.73;;;14.80;1.00;;;;;;5002379;28;20543;-51
2022/06/07 06:59:57;;;;;;;21.30;13.50;;;14.80;1.00;;;;;;4999876;28;20435;-51
2022/06/07 07:02:23;;;;;;;20.53;11.60;;;14.80;1.00;;;;;;4996676;28;20307;-51
2022/06/07 07:04:48;;;;;;;16.20;12.40;;;14.90;1.00;;;;;;4995942;28;20188;-50
2022/06/07 07:07:14;;;;;;;15.27;12.00;;;15.00;1.00;;;;;;5003809;28;20188;-50
2022/06/07 07:09:40;;;;;;;15.63;11.40;;;15.00;1.00;;;;;;5005866;28;20184;-51
2022/06/07 07:12:06;;;;;;;13.77;11.20;;;15.10;1.00;;;;;;4994437;28;20563;-50
2022/06/07 07:14:31;;;;;;;16.90;11.57;;;15.20;1.00;;;;;;4994347;28;20194;-50
2022/06/07 07:16:57;;;;;;;15.90;10.37;;;15.30;1.00;;;;;;4999303;28;20438;-50
2022/06/07 07:19:23;;;;;;;20.13;10.90;;;15.40;1.00;;;;;;4993315;28;20200;-50
2022/06/07 07:21:50;;;;;;;16.13;11.50;;;15.40;1.00;;;;;;4995640;28;20863;-50
2022/06/07 07:24:19;;;;;;;16.57;9.47;;;15.50;1.00;;;;;;4996703;28;20220;-50
2022/06/07 07:26:46;;;;;;;14.10;9.80;;;15.60;1.00;;;;;;5003028;28;20475;-50
2022/06/07 07:29:16;;;;;;;19.67;9.87;;;15.70;1.00;;;;;;4993207;28;20569;-50
2022/06/07 07:31:42;;;;;;;12.27;9.57;;;15.80;1.00;;;;;;4999547;28;20519;-51
2022/06/07 07:34:10;;;;;;;13.10;9.13;;;15.90;1.00;;;;;;4995469;28;22332;-51
2022/06/07 07:36:41;;;;;;;18.33;9.10;;;16.00;1.00;;;;;;4995763;28;20542;-51
2022/06/07 07:39:07;;;;;;;11.33;9.10;;;15.90;1.00;;;;;;5002485;28;20958;-51
2022/06/07 07:41:36;;;;;;;15.00;8.33;;;15.90;1.00;;;;;;4997938;28;20449;-51
2022/06/07 07:44:05;;;;;;;16.53;9.10;;;15.90;1.00;;;;;;5000813;28;20478;-50
2022/06/07 07:46:34;;;;;;;15.10;9.47;;;16.00;1.00;;;;;;5002339;28;20498;-50
2022/06/07 07:49:00;;;;;;;12.53;8.80;;;16.00;1.00;;;;;;5007581;28;20426;-50
2022/06/07 07:51:32;;;;;;;13.83;9.43;;;16.10;1.00;;;;;;4996685;28;20439;-51
2022/06/07 07:53:59;;;;;;;13.73;10.00;;;16.10;1.00;;;;;;5003783;28;20958;-50
2022/06/07 07:56:25;;;;;;;11.77;9.23;;;16.10;1.00;;;;;;5004167;28;21126;-51
2022/06/07 07:58:52;;;;;;;12.37;9.50;;;16.10;1.00;;;;;;4994961;28;20435;-51
2022/06/07 08:01:23;;;;;;;17.57;8.83;;;16.10;1.00;;;;;;4995091;28;20451;-51
2022/06/07 08:03:50;;;;;;;10.37;8.43;;;16.10;1.00;;;;;;5004444;28;20463;-51
2022/06/07 08:06:18;;;;;;;16.23;9.00;;;16.00;1.00;;;;;;5005329;28;20431;-51
2022/06/07 08:08:50;;;;;;;11.03;8.10;;;16.10;1.00;;;;;;4999065;28;20505;-51
2022/06/07 08:11:17;;;;;;;10.80;8.87;;;16.20;1.00;;;;;;5010071;28;20423;-51
2022/06/07 08:13:43;;;;;;;9.03;8.00;;;16.30;1.00;;;;;;4997429;28;20443;-51
2022/06/07 08:16:09;;;;;;;11.50;8.43;;;16.40;1.00;;;;;;5001245;28;20469;-51
2022/06/07 08:18:36;;;;;;;15.70;7.50;;;16.40;1.00;;;;;;5004463;28;20243;-51
2022/06/07 08:21:05;;;;;;;9.83;7.33;;;16.50;1.00;;;;;;5003980;28;20466;-50
2022/06/07 08:23:31;;;;;;;10.70;7.43;;;16.40;1.00;;;;;;5004665;28;20545;-51
2022/06/07 08:25:58;;;;;;;8.67;6.83;;;16.40;1.00;;;;;;4995651;28;20463;-50
2022/06/07 08:28:24;;;;;;;8.07;6.77;;;16.30;1.00;;;;;;4999909;28;21251;-50
2022/06/07 08:30:50;;;;;;;9.63;6.50;;;16.40;1.00;;;;;;4994149;28;20442;-51
2022/06/07 08:38:44;;;;;;;10.60;6.90;;;16.60;99.90;;;;;;4995782;28;20510;-51
2022/06/07 08:41:31;;;;;;;10.93;6.60;;;16.60;99.90;;;;;;4996552;28;20481;-51
2022/06/07 08:44:07;;;;;;;7.50;6.80;;;16.90;99.90;;;;;;5003153;28;20215;-51
2022/06/07 08:46:36;;;;;;;11.60;7.43;;;17.00;99.90;;;;;;4997070;28;20415;-51
2022/06/07 08:49:03;;;;;;;12.40;6.30;;;17.30;99.90;;;;;;5002704;28;20422;-50
2022/06/07 08:51:36;;;;;;;7.00;6.20;;;17.60;1.00;;;;;;4995299;28;20432;-50
2022/06/07 08:54:13;;;;;;;10.30;6.63;;;17.80;99.90;;;;;;4994313;28;20451;-50
2022/06/07 08:56:39;;;;;;;8.20;6.70;;;18.10;99.90;;;;;;4993101;28;20510;-50
2022/06/07 08:59:21;;;;;;;8.97;6.40;;;18.10;99.90;;;;;;4998952;28;20502;-51
2022/06/07 09:01:59;;;;;;;8.20;6.20;;;18.00;99.90;;;;;;4993175;28;20450;-50
2022/06/07 09:04:25;;;;;;;8.37;6.63;;;17.80;99.90;;;;;;5002015;28;20478;-51
2022/06/07 09:06:57;;;;;;;11.20;7.30;;;17.70;99.90;;;;;;4991819;28;20467;-51
2022/06/07 09:12:09;;;;;;;8.30;6.73;;;17.50;99.90;;;;;;4991443;28;20218;-50
2022/06/07 09:12:17;;;;;;;13.37;7.40;;;17.40;99.90;;;;;;4993470;28;20420;-51
2022/06/07 09:14:53;;;;;;;10.33;8.30;;;17.40;99.90;;;;;;4995274;28;20438;-51
2022/06/07 09:17:31;;;;;;;9.07;7.40;;;17.40;99.90;;;;;;4984724;28;20441;-50
2022/06/07 09:19:57;;;;;;;8.77;7.00;;;17.50;99.90;;;;;;4994642;28;20479;-50
2022/06/07 09:22:41;;;;;;;10.00;7.67;;;17.70;99.90;;;;;;5006018;28;20640;-51
2022/06/07 09:25:07;;;;;;;11.97;7.10;;;18.10;99.90;;;;;;4992214;28;20844;-50
2022/06/07 09:27:34;;;;;;;10.60;6.70;;;18.70;99.90;;;;;;5004102;28;20478;-51
2022/06/07 09:30:22;;;;;;;10.83;7.10;;;19.30;99.90;;;;;;4995878;28;20206;-50
2022/06/07 09:32:51;;;;;;;9.23;6.37;;;19.50;99.90;;;;;;4997271;28;20447;-50
2022/06/07 09:35:21;;;;;;;10.03;5.10;;;19.60;99.90;;;;;;4991617;28;20525;-50
2022/06/07 09:37:52;;;;;;;7.13;6.30;;;20.80;99.90;;;;;;4992443;28;20478;-50
2022/06/07 09:40:23;;;;;;;9.30;6.97;;;21.50;99.90;;;;;;5003475;28;20496;-50
2022/06/07 09:42:57;;;;;;;8.80;7.00;;;21.50;99.90;;;;;;4994356;28;20481;-50
2022/06/07 09:45:56;;;;;;;8.73;6.90;;;21.20;99.90;;;;;;4999688;28;20446;-50
2022/06/07 09:48:31;;;;;;;8.43;7.30;;;21.40;99.90;;;;;;4997204;28;21215;-50
2022/06/07 09:51:08;;;;;;;9.37;6.37;;;21.20;99.90;;;;;;5000109;28;20951;-50
2022/06/07 09:53:38;;;;;;;8.20;6.30;;;21.10;99.90;;;;;;5000735;28;21334;-50
2022/06/07 09:56:06;;;;;;;9.40;6.30;;;21.50;99.90;;;;;;4996838;28;20811;-50
2022/06/07 09:58:44;;;;;;;10.00;5.47;;;21.70;99.90;;;;;;4995360;28;20920;-50
2022/06/07 10:01:20;;;;;;;9.40;6.80;;;21.60;99.90;;;;;;4990205;28;20915;-50
2022/06/07 10:03:55;;;;;;;8.03;7.30;;;21.40;99.90;;;;;;5000936;28;20588;-50
2022/06/07 10:06:32;;;;;;;9.23;7.20;;;20.80;99.90;;;;;;5004601;28;20422;-50
2022/06/07 10:09:07;;;;;;;9.37;6.77;;;20.20;99.90;;;;;;4996415;28;20414;-50
2022/06/07 10:11:57;;;;;;;7.90;6.40;;;19.80;99.90;;;;;;4993177;28;20431;-50
2022/06/07 10:14:47;;;;;;;9.80;7.50;;;19.50;99.90;;;;;;4993994;28;20442;-50
2022/06/07 10:17:49;;;;;;;9.57;6.67;;;19.10;99.90;;;;;;4990856;28;20431;-51
2022/06/07 10:20:22;;;;;;;8.63;6.57;;;19.00;99.90;;;;;;4993096;28;20513;-50
2022/06/07 10:23:20;;;;;;;7.33;6.50;;;18.80;99.90;;;;;;4992471;28;20475;-51
2022/06/07 10:26:04;;;;;;;10.40;7.13;;;18.60;99.90;;;;;;4987768;28;20451;-50
2022/06/07 10:28:41;;;;;;;8.50;7.07;;;18.50;99.90;;;;;;4987571;28;21350;-49
2022/06/07 10:31:28;;;;;;;10.37;7.40;;;18.30;99.90;;;;;;4988376;28;20836;-50
2022/06/07 10:33:58;;;;;;;9.37;6.77;;;18.20;99.90;;;;;;4990310;28;20873;-50
2022/06/07 10:36:33;;;;;;;8.43;7.57;;;18.20;99.90;;;;;;4992801;28;20562;-49
2022/06/07 10:39:04;;;;;;;9.00;7.20;;;18.10;99.90;;;;;;4993864;28;20874;-49
2022/06/07 10:41:35;;;;;;;9.40;7.20;;;17.90;99.90;;;;;;4993939;28;21302;-49
2022/06/07 10:44:34;;;;;;;10.27;8.20;;;17.80;99.90;;;;;;4993460;28;20474;-50
2022/06/07 10:47:20;;;;;;;11.10;8.23;;;17.70;99.90;;;;;;4990958;28;20458;-49
2022/06/07 10:50:07;;;;;;;12.33;7.80;;;17.70;99.90;;;;;;4996757;28;21182;-49
2022/06/07 10:52:45;;;;;;;9.83;7.50;;;17.70;99.90;;;;;;4990152;28;20450;-50
2022/06/07 10:55:20;;;;;;;10.90;8.17;;;17.70;99.90;;;;;;4991491;28;22335;-49
2022/06/07 10:57:48;;;;;;;10.73;8.57;;;17.70;99.90;;;;;;4989731;28;20456;-49
2022/06/07 11:00:49;;;;;;;9.20;8.30;;;17.80;99.90;;;;;;4994889;28;20447;-49
2022/06/07 11:03:24;;;;;;;10.57;8.17;;;17.90;99.90;;;;;;4993137;28;20840;-50
2022/06/07 11:09:21;;;;;;;11.77;9.27;;;17.90;99.90;;;;;;4999127;28;20446;-51
2022/06/07 11:11:56;;;;;;;11.00;9.80;;;17.60;99.90;;;;;;4988889;28;20537;-51
2022/06/07 11:14:41;;;;;;;16.70;10.17;;;17.40;99.90;;;;;;4989087;28;20536;-50
2022/06/07 11:17:21;;;;;;;17.87;11.60;;;17.20;99.90;;;;;;4993152;28;21293;-51
2022/06/07 11:19:47;;;;;;;21.23;13.10;;;16.90;99.90;;;;;;4994625;28;20467;-51
2022/06/07 11:22:19;;;;;;;17.07;13.30;;;16.70;99.90;;;;;;4994321;28;20821;-51
2022/06/07 11:24:55;;;;;;;15.23;12.53;;;16.50;99.90;;;;;;4993654;28;20453;-51
2022/06/07 11:27:23;;;;;;;19.30;14.13;;;16.40;99.90;;;;;;4988270;28;21059;-50
2022/06/07 11:30:09;;;;;;;15.17;13.00;;;16.30;99.90;;;;;;4994081;28;20534;-51
2022/06/07 11:32:48;;;;;;;14.43;12.93;;;16.30;99.90;;;;;;4989515;28;20451;-51
2022/06/07 11:35:43;;;;;;;23.93;14.30;;;16.20;99.90;;;;;;4988495;28;20447;-50
2022/06/07 11:38:18;;;;;;;18.20;13.43;;;16.00;99.90;;;;;;4995151;28;20482;-50
2022/06/07 11:40:46;;;;;;;16.07;12.43;;;16.00;99.90;;;;;;4991803;28;20446;-51
2022/06/07 11:43:49;;;;;;;15.80;12.57;;;16.00;1.00;;;;;;4992832;28;20497;-51
2022/06/07 11:46:57;;;;;;;18.20;13.30;;;16.00;99.90;;;;;;4986398;28;20445;-50
2022/06/07 11:49:29;;;;;;;19.23;13.70;;;15.90;99.90;;;;;;4990832;28;20459;-51
2022/06/07 11:52:12;;;;;;;17.23;13.53;;;15.80;1.00;;;;;;4990592;28;20457;-51
2022/06/07 11:54:45;;;;;;;19.27;13.23;;;16.00;99.90;;;;;;4995425;28;20530;-51
2022/06/07 11:57:28;;;;;;;17.03;13.00;;;16.30;99.90;;;;;;4989307;28;20452;-51
2022/06/07 12:00:19;;;;;;;15.67;12.60;;;16.50;99.90;;;;;;4996497;28;20941;-51
2022/06/07 12:02:57;;;;;;;17.80;12.90;;;16.70;99.90;;;;;;4987713;28;20992;-50
2022/06/07 12:05:44;;;;;;;15.03;12.13;;;16.90;99.90;;;;;;4994641;28;20932;-50
2022/06/07 12:08:26;;;;;;;15.63;11.47;;;17.20;99.90;;;;;;4994245;28;21112;-49
2022/06/07 12:11:20;;;;;;;15.33;11.90;;;17.70;99.90;;;;;;4984957;28;20440;-50
2022/06/07 12:13:52;;;;;;;13.53;11.17;;;17.90;99.90;;;;;;4991673;28;20439;-50
2022/06/07 12:16:32;;;;;;;14.30;11.40;;;17.90;99.90;;;;;;4992116;28;20469;-49
2022/06/07 12:19:00;;;;;;;11.50;10.30;;;17.80;99.90;;;;;;4988588;28;20439;-49
2022/06/07 12:21:27;;;;;;;13.60;11.43;;;17.80;99.90;;;;;;4990829;28;20571;-50
2022/06/07 12:24:09;;;;;;;15.77;11.37;;;17.90;99.90;;;;;;4996983;28;20470;-50
2022/06/07 12:26:35;;;;;;;12.03;10.53;;;17.90;99.90;;;;;;4994903;28;20509;-51
2022/06/07 12:29:27;;;;;;;13.10;11.00;;;17.80;99.90;;;;;;4989409;28;20435;-51
2022/06/07 12:32:04;;;;;;;14.70;11.70;;;17.90;99.90;;;;;;4991646;28;20181;-50
2022/06/07 12:34:35;;;;;;;13.07;11.60;;;17.70;99.90;;;;;;4993108;28;20526;-50
2022/06/07 12:37:18;;;;;;;13.23;11.10;;;17.60;99.90;;;;;;4989241;28;20541;-50
2022/06/07 12:39:51;;;;;;;16.40;10.70;;;17.50;99.90;;;;;;4990244;28;21041;-50
2022/06/07 12:42:23;;;;;;;15.53;11.50;;;17.70;99.90;;;;;;4995125;28;20438;-50
2022/06/07 12:44:56;;;;;;;14.83;11.00;;;17.70;99.90;;;;;;4996592;28;20451;-51
2022/06/07 12:47:25;;;;;;;15.93;10.37;;;17.70;99.90;;;;;;4997730;28;20435;-50
2022/06/07 12:49:52;;;;;;;13.40;10.40;;;17.60;99.90;;;;;;4999585;28;20454;-50
2022/06/07 12:52:22;;;;;;;11.77;10.20;;;17.50;99.90;;;;;;4997983;28;20550;-51
2022/06/07 12:54:50;;;;;;;14.70;10.07;;;17.50;99.90;;;;;;5001280;28;20422;-51
2022/06/07 12:57:19;;;;;;;15.93;10.57;;;17.50;99.90;;;;;;4994557;28;20447;-51
2022/06/07 13:00:00;;;;;;;13.10;10.17;;;17.50;99.90;;;;;;5001588;28;20450;-50
2022/06/07 13:02:40;;;;;;;16.63;11.57;;;17.40;99.90;;;;;;4998117;28;20466;-51
2022/06/07 13:05:10;;;;;;;17.23;10.27;;;17.30;99.90;;;;;;4997178;28;20887;-51
2022/06/07 13:07:56;;;;;;;13.57;10.30;;;17.20;99.90;;;;;;4997566;28;20897;-51
2022/06/07 13:10:26;;;;;;;14.97;10.97;;;17.20;99.90;;;;;;5002241;28;20905;-52
2022/06/07 13:12:55;;;;;;;16.30;9.97;;;17.20;99.90;;;;;;5001690;28;20423;-51
2022/06/07 13:15:26;;;;;;;13.20;9.93;;;17.30;99.90;;;;;;4994163;28;20834;-51
2022/06/07 13:18:22;;;;;;;15.90;11.00;;;17.40;99.90;;;;;;4996192;28;20439;-51
2022/06/07 13:20:51;;;;;;;15.77;9.90;;;17.40;99.90;;;;;;4987116;28;20486;-51
2022/06/07 13:23:19;;;;;;;14.20;10.60;;;17.40;99.90;;;;;;5004154;28;20462;-51